Virtual Washington ARTCC

Weather

KBWI 112354Z 16004KT 10SM FEW100 FEW150 04/M02 A2996 RMK AO2 SLP147 T00441017 10083 20039 56009
KDCA 112352Z 17009KT 10SM SCT250 06/M02 A2997 RMK AO2 SLP149 T00611022 10094 20061 55010
KIAD 112352Z 14007KT 10SM FEW120 SCT250 04/M02 A2994 RMK AO2 SLP142 T00441022 10089 20044 55012
KORF 112351Z 18004KT 10SM CLR 05/M01 A3002 RMK AO2 SLP163 T00501011 10100 20050 58005
KRDU 112351Z 19006KT 10SM CLR 07/M01 A3001 RMK AO2 SLP163 T00721011 10128 20056 56004

Events



ZDC Activity

No controllers online.

News



The information contained on all pages of this website is to be used for flight simulation purposes only on the VATSIM network. It is not intended nor should it be used for real world navigation.This site is not affiliated with the FAA, the actual Washington Center or any governing aviation body. All content contained herein is approved only for use on the VATSIM network. ©2016 Virtual Washington ARTCC -- Source Code © 2016-2017 W. Guisbond and R. Rump.